createdAt,value
2023-07-08T00:01:14.782Z,3.72
2023-07-08T00:03:43.442Z,4.47
2023-07-08T00:06:16.380Z,4.30
2023-07-08T00:08:44.440Z,3.45
2023-07-08T00:11:14.881Z,3.30
2023-07-08T00:13:43.303Z,3.00
2023-07-08T00:16:13.798Z,2.53
2023-07-08T00:18:42.081Z,4.13
2023-07-08T00:21:16.788Z,5.10
2023-07-08T00:23:46.908Z,2.67
2023-07-08T00:26:22.519Z,2.58
2023-07-08T00:28:50.497Z,2.35
2023-07-08T00:31:24.705Z,5.18
2023-07-08T00:33:56.440Z,2.25
2023-07-08T00:36:26.693Z,5.07
2023-07-08T00:38:54.802Z,4.75
2023-07-08T00:41:29.435Z,3.20
2023-07-08T00:43:59.507Z,4.85
2023-07-08T00:46:39.269Z,3.28
2023-07-08T00:49:23.383Z,3.80
2023-07-08T00:51:51.437Z,4.88
2023-07-08T00:54:47.304Z,4.35
2023-07-08T00:57:16.798Z,4.57
2023-07-08T00:59:48.003Z,5.13
2023-07-08T01:02:20.308Z,3.63
2023-07-08T01:04:53.786Z,2.72
2023-07-08T01:07:23.400Z,3.15
2023-07-08T01:09:59.847Z,3.85
2023-07-08T01:12:34.276Z,3.00
2023-07-08T01:15:04.573Z,3.22
2023-07-08T01:17:34.208Z,3.42
2023-07-08T01:20:05.742Z,5.32
2023-07-08T01:22:37.030Z,4.13
2023-07-08T01:25:05.902Z,4.35
2023-07-08T01:27:37.549Z,4.35
2023-07-08T01:30:07.993Z,2.90
2023-07-08T01:32:38.300Z,3.85
2023-07-08T01:35:07.534Z,2.60
2023-07-08T01:37:40.015Z,4.00
2023-07-08T01:40:28.297Z,3.28
2023-07-08T01:42:56.603Z,4.35
2023-07-08T01:45:27.437Z,3.53
2023-07-08T01:47:59.598Z,4.82
2023-07-08T01:50:28.409Z,3.53
2023-07-08T01:53:00.678Z,3.88
2023-07-08T01:55:31.373Z,4.03
2023-07-08T01:57:59.516Z,4.15
2023-07-08T02:00:27.681Z,4.85
2023-07-08T02:02:55.709Z,4.07
2023-07-08T02:05:25.161Z,5.15
2023-07-08T02:07:53.345Z,3.30
2023-07-08T02:10:22.728Z,3.30
2023-07-08T02:12:50.787Z,3.88
2023-07-08T02:15:19.265Z,6.15
2023-07-08T02:17:47.255Z,3.45
2023-07-08T02:20:15.338Z,4.00
2023-07-08T02:22:43.425Z,4.15
2023-07-08T02:25:11.500Z,3.78
2023-07-08T02:27:41.199Z,3.22
2023-07-08T02:30:10.091Z,4.20
2023-07-08T02:32:40.195Z,4.55
2023-07-08T02:35:09.356Z,4.35
2023-07-08T02:37:37.431Z,3.83
2023-07-08T02:40:05.929Z,3.95
2023-07-08T02:42:33.955Z,4.47
2023-07-08T02:45:03.287Z,3.75
2023-07-08T02:47:31.312Z,3.50
2023-07-08T02:49:59.493Z,2.50
2023-07-08T02:52:27.481Z,3.22
2023-07-08T02:54:55.599Z,3.03
2023-07-08T02:57:23.695Z,3.90
2023-07-08T02:59:51.723Z,4.18
2023-07-08T03:07:41.945Z,8.13
2023-07-08T03:10:11.399Z,3.92
2023-07-08T03:12:39.397Z,4.20
2023-07-08T03:15:08.529Z,5.57
2023-07-08T03:17:36.686Z,4.28
2023-07-08T03:20:06.714Z,4.65
2023-07-08T03:22:36.280Z,4.10
2023-07-08T03:25:06.702Z,4.35
2023-07-08T03:31:16.045Z,3.65
2023-07-08T03:33:44.274Z,5.93
2023-07-08T03:36:23.496Z,3.15
2023-07-08T03:38:52.370Z,4.05
2023-07-08T03:41:22.025Z,6.18
2023-07-08T03:43:51.616Z,3.08
2023-07-08T03:46:21.824Z,8.30
2023-07-08T03:48:50.120Z,3.33
2023-07-08T03:51:23.577Z,4.55
2023-07-08T03:53:52.384Z,4.97
2023-07-08T03:56:21.875Z,4.18
2023-07-08T03:58:50.034Z,5.93
2023-07-08T04:01:19.616Z,3.03
2023-07-08T04:03:48.010Z,4.82
2023-07-08T04:06:16.433Z,4.32
2023-07-08T04:08:44.473Z,4.88
2023-07-08T04:11:14.471Z,5.18
2023-07-08T04:13:44.053Z,3.53
2023-07-08T04:16:20.889Z,4.55
2023-07-08T04:18:51.859Z,4.25
2023-07-08T04:21:23.377Z,3.97
2023-07-08T04:23:51.682Z,4.05
2023-07-08T04:26:20.921Z,4.95
2023-07-08T04:28:50.339Z,4.28
2023-07-08T04:31:18.561Z,4.18
2023-07-08T04:33:46.627Z,3.25
2023-07-08T04:36:16.152Z,5.00
2023-07-08T04:38:47.775Z,4.00
2023-07-08T04:41:16.232Z,4.30
2023-07-08T04:43:44.898Z,7.28
2023-07-08T05:02:17.450Z,4.60
2023-07-08T05:04:47.311Z,4.47
2023-07-08T05:07:15.389Z,3.72
2023-07-08T05:09:43.436Z,4.60
2023-07-08T05:12:11.598Z,4.25
2023-07-08T05:14:39.980Z,6.07
2023-07-08T05:17:08.160Z,5.05
2023-07-08T05:19:36.698Z,3.97
2023-07-08T05:22:06.810Z,4.68
2023-07-08T05:24:35.099Z,4.15
2023-07-08T05:27:03.254Z,7.93
2023-07-08T05:29:31.618Z,3.25
2023-07-08T05:31:59.872Z,4.35
2023-07-08T05:34:28.693Z,4.05
2023-07-08T05:36:57.528Z,4.68
2023-07-08T05:39:27.149Z,5.18
2023-07-08T05:41:55.387Z,5.93
2023-07-08T05:44:23.470Z,6.47
2023-07-08T05:46:52.122Z,3.90
2023-07-08T05:49:20.342Z,5.85
2023-07-08T05:51:48.767Z,4.25
2023-07-08T05:54:17.465Z,5.85
2023-07-08T05:56:47.390Z,4.68
2023-07-08T05:59:15.815Z,5.15
2023-07-08T06:01:44.669Z,3.53
2023-07-08T06:04:13.551Z,3.50
2023-07-08T06:06:42.387Z,3.80
2023-07-08T06:09:10.555Z,5.70
2023-07-08T06:11:38.631Z,5.15
2023-07-08T06:14:08.270Z,5.63
2023-07-08T06:16:41.549Z,4.47
2023-07-08T06:19:10.487Z,3.30
2023-07-08T06:21:38.624Z,4.55
2023-07-08T06:24:09.819Z,5.47
2023-07-08T06:26:41.090Z,3.45
2023-07-08T06:29:11.164Z,5.15
2023-07-08T06:31:39.729Z,3.42
2023-07-08T06:34:10.835Z,3.90
2023-07-08T06:36:39.197Z,5.13
2023-07-08T06:39:09.969Z,5.68
2023-07-08T06:41:38.138Z,6.35
2023-07-08T06:44:06.525Z,3.13
2023-07-08T06:46:36.495Z,3.25
2023-07-08T06:49:05.221Z,3.05
2023-07-08T06:51:33.231Z,4.50
2023-07-08T06:54:01.315Z,3.60
2023-07-08T06:56:29.403Z,6.50
2023-07-08T06:58:57.500Z,4.65
2023-07-08T07:01:25.793Z,3.28
2023-07-08T07:03:55.808Z,3.15
2023-07-08T07:06:24.140Z,4.05
2023-07-08T07:08:52.190Z,4.72
2023-07-08T07:11:20.840Z,3.50
2023-07-08T07:13:49.449Z,4.95
2023-07-08T07:16:17.986Z,4.22
2023-07-08T07:18:46.485Z,4.45
2023-07-08T07:21:15.905Z,4.13
2023-07-08T07:23:43.941Z,2.85
2023-07-08T07:26:12.038Z,3.50
2023-07-08T07:28:40.014Z,4.72
2023-07-08T07:31:08.325Z,5.00
2023-07-08T07:33:36.522Z,2.85
2023-07-08T07:36:04.940Z,8.05
2023-07-08T07:38:36.440Z,4.85
2023-07-08T07:41:07.266Z,3.97
2023-07-08T07:43:35.983Z,3.28
2023-07-08T07:46:06.409Z,3.95
2023-07-08T07:48:35.035Z,3.33
2023-07-08T07:51:03.178Z,7.18
2023-07-08T07:53:31.281Z,5.38
2023-07-08T07:56:02.510Z,4.45
2023-07-08T07:58:31.745Z,3.05
2023-07-08T08:01:00.100Z,3.92
2023-07-08T08:07:19.286Z,3.70
2023-07-08T08:09:47.318Z,5.35
2023-07-08T08:12:16.808Z,4.25
2023-07-08T08:14:44.800Z,3.90
2023-07-08T08:17:12.986Z,4.28
2023-07-08T08:19:41.353Z,4.35
2023-07-08T08:22:09.439Z,4.80
2023-07-08T08:24:37.691Z,3.30
2023-07-08T08:27:06.762Z,4.00
2023-07-08T08:29:36.449Z,5.15
2023-07-08T08:32:07.356Z,3.63
2023-07-08T08:34:37.337Z,5.22
2023-07-08T08:37:08.835Z,4.40
2023-07-08T08:39:39.692Z,5.35
2023-07-08T08:42:19.004Z,4.72
2023-07-08T08:44:49.819Z,4.30
2023-07-08T08:47:27.970Z,5.43
2023-07-08T08:50:03.056Z,4.68
2023-07-08T08:52:31.934Z,4.63
2023-07-08T08:55:00.535Z,4.07
2023-07-08T08:57:44.427Z,5.50
2023-07-08T09:00:21.960Z,4.90
2023-07-08T09:02:59.557Z,4.00
2023-07-08T09:05:28.094Z,4.72
2023-07-08T09:08:06.325Z,4.95
2023-07-08T09:10:47.222Z,6.00
2023-07-08T09:13:24.795Z,4.90
2023-07-08T09:16:04.146Z,5.00
2023-07-08T09:18:38.883Z,5.55
2023-07-08T09:21:18.758Z,5.78
2023-07-08T09:23:49.405Z,5.47
2023-07-08T09:26:21.830Z,4.95
2023-07-08T09:28:50.282Z,5.65
2023-07-08T09:31:25.982Z,7.53
2023-07-08T09:33:55.682Z,4.72
2023-07-08T09:36:27.203Z,6.40
2023-07-08T09:38:56.503Z,5.75
2023-07-08T09:41:33.141Z,5.45
2023-07-08T09:44:21.159Z,5.88
2023-07-08T09:46:51.409Z,5.10
2023-07-08T09:49:24.003Z,5.25
2023-07-08T09:51:53.497Z,5.32
2023-07-08T09:54:23.085Z,6.13
2023-07-08T09:57:00.969Z,5.50
2023-07-08T09:59:36.198Z,5.65
2023-07-08T10:02:38.976Z,6.18
2023-07-08T10:05:16.308Z,6.43
2023-07-08T10:07:44.595Z,5.35
2023-07-08T10:10:19.121Z,5.70
2023-07-08T10:12:57.474Z,5.40
2023-07-08T10:15:32.789Z,5.30
2023-07-08T10:18:02.800Z,6.68
2023-07-08T10:20:42.833Z,5.00
2023-07-08T10:23:22.415Z,6.65
2023-07-08T10:25:58.355Z,6.55
2023-07-08T10:28:38.160Z,5.10
2023-07-08T10:31:18.992Z,7.70
2023-07-08T10:34:07.662Z,6.28
2023-07-08T10:36:47.098Z,6.22
2023-07-08T10:39:41.493Z,6.22
2023-07-08T10:42:27.713Z,5.95
2023-07-08T10:45:07.010Z,5.63
2023-07-08T10:47:57.059Z,6.18
2023-07-08T10:50:52.001Z,7.47
2023-07-08T10:53:45.309Z,6.40
2023-07-08T10:56:18.266Z,6.22
2023-07-08T10:59:24.001Z,6.55
2023-07-08T11:02:17.009Z,7.03
2023-07-08T11:04:57.061Z,6.18
2023-07-08T11:15:18.279Z,6.57
2023-07-08T11:17:51.443Z,4.75
2023-07-08T11:20:24.938Z,10.27
2023-07-08T11:22:57.323Z,6.82
2023-07-08T11:25:28.528Z,5.95
2023-07-08T11:28:01.012Z,7.70
2023-07-08T11:30:34.271Z,6.07
2023-07-08T11:33:08.420Z,6.32
2023-07-08T11:39:35.569Z,7.82
2023-07-08T11:42:27.523Z,6.70
2023-07-08T11:44:58.395Z,6.93
2023-07-08T11:47:38.253Z,5.50
2023-07-08T11:50:14.892Z,7.53
2023-07-08T11:52:53.453Z,8.25
2023-07-08T11:55:31.021Z,7.40
2023-07-08T11:58:02.216Z,6.72
2023-07-08T12:00:34.587Z,5.43
2023-07-08T12:03:21.900Z,7.15
2023-07-08T12:06:27.158Z,6.78
2023-07-08T12:09:02.652Z,6.68
2023-07-08T12:11:41.462Z,6.57
2023-07-08T12:14:09.913Z,8.98
2023-07-08T12:16:38.992Z,7.65
2023-07-08T12:22:50.273Z,6.53
2023-07-08T12:25:21.159Z,8.63
2023-07-08T12:27:49.386Z,8.15
2023-07-08T12:30:18.647Z,6.25
2023-07-08T12:32:47.393Z,7.47
2023-07-08T12:35:23.517Z,6.43
2023-07-08T12:37:53.962Z,6.97
2023-07-08T12:40:24.500Z,6.40
2023-07-08T12:42:52.724Z,6.80
2023-07-08T12:45:23.795Z,7.82
2023-07-08T12:47:52.775Z,7.72
2023-07-08T12:50:22.074Z,6.20
2023-07-08T12:52:50.125Z,6.80
2023-07-08T12:55:20.606Z,6.38
2023-07-08T12:57:52.565Z,6.20
2023-07-08T13:00:27.455Z,8.18
2023-07-08T13:03:07.511Z,5.45
2023-07-08T13:05:36.773Z,7.75
2023-07-08T13:08:05.335Z,7.28
2023-07-08T13:10:37.495Z,5.18
2023-07-08T13:13:11.038Z,6.28
2023-07-08T13:15:42.838Z,7.63
2023-07-08T13:18:16.955Z,6.50
2023-07-08T13:20:46.605Z,8.68
2023-07-08T13:23:14.804Z,9.10
2023-07-08T13:25:44.320Z,5.95
2023-07-08T13:28:19.403Z,6.63
2023-07-08T13:30:54.768Z,7.32
2023-07-08T13:33:23.435Z,6.07
2023-07-08T13:35:52.999Z,8.27
2023-07-08T13:38:23.466Z,7.10
2023-07-08T13:40:56.982Z,5.93
2023-07-08T13:43:29.917Z,7.88
2023-07-08T13:45:58.063Z,7.68
2023-07-08T13:48:29.513Z,5.70
2023-07-08T13:51:00.941Z,8.65
2023-07-08T13:53:44.895Z,7.15
2023-07-08T13:56:17.756Z,7.55
2023-07-08T13:58:48.738Z,6.97
2023-07-08T14:01:21.923Z,8.70
2023-07-08T14:03:52.169Z,6.63
2023-07-08T14:06:23.056Z,6.30
2023-07-08T14:08:51.512Z,9.20
2023-07-08T14:11:20.977Z,6.20
2023-07-08T14:13:49.130Z,7.70
2023-07-08T14:16:26.263Z,6.55
2023-07-08T14:18:54.842Z,6.25
2023-07-08T14:21:22.952Z,5.28
2023-07-08T14:23:51.037Z,5.88
2023-07-08T14:26:20.643Z,5.25
2023-07-08T14:28:48.739Z,6.32
2023-07-08T14:31:24.759Z,7.28
2023-07-08T14:33:57.873Z,5.93
2023-07-08T14:36:25.952Z,7.15
2023-07-08T14:38:54.061Z,5.50
2023-07-08T14:41:24.324Z,5.65
2023-07-08T14:43:52.612Z,7.78
2023-07-08T14:46:20.805Z,7.43
2023-07-08T14:48:48.910Z,5.75
2023-07-08T14:51:17.029Z,4.55
2023-07-08T14:54:09.821Z,7.18
2023-07-08T14:56:39.976Z,4.45
2023-07-08T14:59:08.893Z,6.65
2023-07-08T15:01:36.960Z,8.57
2023-07-08T15:04:12.369Z,5.75
2023-07-08T15:06:40.627Z,6.45
2023-07-08T15:09:08.826Z,6.82
2023-07-08T15:11:39.220Z,4.55
2023-07-08T15:14:12.521Z,6.10
2023-07-08T15:16:40.965Z,4.97
2023-07-08T15:19:12.866Z,6.40
2023-07-08T15:21:41.221Z,6.13
2023-07-08T15:24:12.963Z,5.63
2023-07-08T15:26:44.664Z,6.03
2023-07-08T15:33:03.060Z,4.22
2023-07-08T15:35:33.657Z,4.57
2023-07-08T15:38:04.992Z,6.38
2023-07-08T15:44:16.472Z,5.97
2023-07-08T15:46:46.441Z,6.45
2023-07-08T15:49:17.676Z,6.82
2023-07-08T15:51:49.252Z,6.22
2023-07-08T15:54:19.838Z,7.85
2023-07-08T15:56:48.904Z,5.00
2023-07-08T15:59:23.244Z,6.95
2023-07-08T16:01:51.817Z,6.55
2023-07-08T16:04:26.014Z,5.07
2023-07-08T16:06:54.292Z,9.40
2023-07-08T16:09:22.423Z,5.70
2023-07-08T16:11:50.512Z,6.78
2023-07-08T16:14:21.400Z,7.00
2023-07-08T16:16:49.428Z,4.97
2023-07-08T16:19:17.670Z,4.32
2023-07-08T16:21:45.818Z,7.60
2023-07-08T16:24:13.847Z,5.90
2023-07-08T16:26:42.768Z,5.97
2023-07-08T16:29:17.733Z,7.07
2023-07-08T16:31:47.963Z,6.25
2023-07-08T16:34:16.558Z,6.25
2023-07-08T16:36:44.494Z,7.75
2023-07-08T16:39:12.474Z,6.35
2023-07-08T16:41:40.657Z,7.03
2023-07-08T16:44:15.421Z,5.72
2023-07-08T16:46:43.628Z,7.13
2023-07-08T16:49:13.300Z,13.02
2023-07-08T16:51:41.743Z,16.95
2023-07-08T16:54:15.115Z,9.77
2023-07-08T16:56:43.574Z,10.02
2023-07-08T16:59:13.062Z,20.02
2023-07-08T17:01:41.221Z,7.70
2023-07-08T17:04:13.733Z,9.48
2023-07-08T17:06:41.875Z,6.22
2023-07-08T17:09:12.806Z,6.72
2023-07-08T17:11:41.015Z,6.53
2023-07-08T17:14:09.918Z,9.10
2023-07-08T17:16:39.035Z,6.60
2023-07-08T17:19:07.036Z,5.45
2023-07-08T17:21:36.456Z,7.15
2023-07-08T17:24:04.784Z,8.27
2023-07-08T17:26:32.892Z,7.70
2023-07-08T17:29:01.576Z,7.10
2023-07-08T17:31:38.424Z,6.47
2023-07-08T17:34:21.866Z,6.40
2023-07-08T17:36:51.825Z,6.10
2023-07-08T17:39:21.204Z,6.75
2023-07-08T17:41:52.753Z,5.70
2023-07-08T17:44:21.706Z,5.43
2023-07-08T17:46:50.222Z,8.02
2023-07-08T17:49:18.483Z,8.48
2023-07-08T17:51:46.499Z,9.38
2023-07-08T17:54:17.223Z,7.88
2023-07-08T17:57:31.589Z,5.68
2023-07-08T17:59:59.648Z,6.63
2023-07-08T18:02:27.767Z,8.27
2023-07-08T18:04:56.024Z,11.13
2023-07-08T18:07:26.446Z,8.38
2023-07-08T18:09:55.942Z,8.93
2023-07-08T18:12:24.401Z,7.85
2023-07-08T18:14:52.426Z,8.80
2023-07-08T18:17:20.461Z,7.03
2023-07-08T18:19:49.762Z,8.43
2023-07-08T18:22:17.876Z,8.55
2023-07-08T18:24:45.891Z,7.45
2023-07-08T18:27:16.287Z,7.47
2023-07-08T18:29:45.394Z,8.07
2023-07-08T18:32:13.503Z,8.52
2023-07-08T18:34:41.738Z,6.00
2023-07-08T18:37:10.986Z,9.02
2023-07-08T18:39:40.210Z,7.20
2023-07-08T18:42:11.217Z,6.75
2023-07-08T18:44:40.711Z,5.15
2023-07-08T18:47:12.725Z,8.00
2023-07-08T18:49:41.105Z,5.45
2023-07-08T18:52:10.901Z,6.00
2023-07-08T18:54:39.034Z,6.55
2023-07-08T18:57:10.278Z,7.40
2023-07-08T18:59:40.308Z,5.25
2023-07-08T19:02:31.930Z,5.70
2023-07-08T19:05:00.070Z,4.78
2023-07-08T19:07:28.160Z,8.27
2023-07-08T19:09:56.624Z,7.63
2023-07-08T19:12:26.496Z,7.10
2023-07-08T19:14:54.617Z,9.48
2023-07-08T19:17:24.267Z,11.20
2023-07-08T19:19:52.404Z,9.38
2023-07-08T19:22:22.005Z,5.78
2023-07-08T19:24:52.465Z,8.57
2023-07-08T19:27:21.042Z,8.93
2023-07-08T19:29:49.037Z,8.13
2023-07-08T19:32:18.824Z,12.98
2023-07-08T19:34:50.502Z,12.18
2023-07-08T19:37:20.239Z,8.27
2023-07-08T19:39:49.028Z,8.07
2023-07-08T19:42:22.273Z,7.22
2023-07-08T19:44:50.324Z,6.78
2023-07-08T19:47:18.458Z,6.47
2023-07-08T19:49:47.926Z,8.48
2023-07-08T19:52:15.955Z,6.60
2023-07-08T19:54:44.005Z,7.15
2023-07-08T19:57:13.016Z,7.90
2023-07-08T19:59:41.224Z,9.20
2023-07-08T20:02:15.676Z,9.32
2023-07-08T20:04:49.211Z,8.23
2023-07-08T20:07:18.951Z,10.85
2023-07-08T20:09:47.000Z,8.48
2023-07-08T20:12:15.974Z,7.45
2023-07-08T20:14:44.362Z,8.32
2023-07-08T20:17:16.726Z,9.38
2023-07-08T20:19:44.947Z,17.15
2023-07-08T20:22:15.815Z,12.45
2023-07-08T20:24:45.272Z,23.95
2023-07-08T20:27:13.437Z,13.70
2023-07-08T20:29:41.641Z,15.75
2023-07-08T20:32:15.455Z,9.85
2023-07-08T20:34:43.702Z,28.33
2023-07-08T20:37:13.755Z,26.70
2023-07-08T20:39:42.382Z,31.45
2023-07-08T20:42:14.603Z,14.35
2023-07-08T20:44:42.971Z,22.88
2023-07-08T20:47:16.122Z,23.40
2023-07-08T20:49:44.372Z,20.00
2023-07-08T20:52:13.398Z,12.68
2023-07-08T20:54:41.674Z,16.70
2023-07-08T20:57:14.254Z,10.90
2023-07-08T20:59:42.743Z,8.93
2023-07-08T21:02:23.723Z,8.23
2023-07-08T21:04:51.912Z,9.85
2023-07-08T21:07:20.673Z,11.02
2023-07-08T21:09:50.475Z,7.38
2023-07-08T21:12:19.844Z,11.07
2023-07-08T21:14:47.860Z,11.50
2023-07-08T21:17:18.735Z,11.10
2023-07-08T21:19:47.346Z,9.38
2023-07-08T21:22:15.574Z,10.05
2023-07-08T21:24:43.960Z,8.60
2023-07-08T21:27:24.159Z,11.50
2023-07-08T21:29:52.167Z,10.65
2023-07-08T21:32:20.151Z,9.27
2023-07-08T21:34:48.200Z,9.88
2023-07-08T21:37:16.316Z,9.73
2023-07-08T21:39:46.390Z,12.93
2023-07-08T21:42:15.803Z,9.00
2023-07-08T21:44:45.346Z,11.52
2023-07-08T21:47:15.118Z,9.23
2023-07-08T21:49:45.989Z,9.20
2023-07-08T21:52:14.322Z,9.68
2023-07-08T21:54:42.504Z,10.43
2023-07-08T21:57:14.671Z,10.30
2023-07-08T21:59:44.070Z,10.40
2023-07-08T22:02:15.224Z,9.77
2023-07-08T22:04:43.557Z,9.52
2023-07-08T22:11:02.747Z,12.35
2023-07-08T22:13:33.252Z,15.55
2023-07-08T22:16:05.262Z,9.52
2023-07-08T22:18:33.755Z,10.05
2023-07-08T22:21:07.722Z,8.63
2023-07-08T22:23:35.808Z,9.10
2023-07-08T22:26:03.952Z,10.30
2023-07-08T22:28:32.258Z,8.57
2023-07-08T22:31:00.446Z,10.95
2023-07-08T22:33:29.836Z,10.75
2023-07-08T22:35:57.849Z,11.43
2023-07-08T22:38:25.935Z,8.90
2023-07-08T22:40:53.998Z,10.52
2023-07-08T22:43:28.800Z,10.25
2023-07-08T22:45:57.032Z,9.40
2023-07-08T22:48:27.884Z,7.45
2023-07-08T22:51:01.369Z,10.73
2023-07-08T22:53:31.826Z,11.10
2023-07-08T22:56:00.378Z,10.23
2023-07-08T22:58:30.183Z,10.63
2023-07-08T23:00:58.380Z,8.43
2023-07-08T23:03:26.594Z,12.00
2023-07-08T23:05:58.891Z,9.57
2023-07-08T23:08:31.056Z,9.48
2023-07-08T23:10:59.435Z,9.25
2023-07-08T23:13:35.348Z,9.65
2023-07-08T23:16:10.701Z,10.13
2023-07-08T23:18:38.879Z,7.68
2023-07-08T23:21:09.611Z,9.45
2023-07-08T23:23:38.588Z,10.70
2023-07-08T23:26:12.389Z,11.07
2023-07-08T23:28:40.529Z,13.55
2023-07-08T23:31:09.918Z,9.60
2023-07-08T23:33:38.066Z,9.27
2023-07-08T23:36:19.680Z,6.63
2023-07-08T23:38:47.752Z,6.47
2023-07-08T23:41:20.279Z,8.43
2023-07-08T23:43:48.347Z,7.40
2023-07-08T23:46:24.260Z,9.43
2023-07-08T23:48:53.125Z,7.38
2023-07-08T23:51:25.258Z,8.60
2023-07-08T23:53:53.430Z,6.35
2023-07-08T23:56:28.044Z,8.13
2023-07-08T23:58:56.121Z,8.70
